Time;durP1;ratioP1;P1;durP2;ratioP2;P2;SDS_P1;SDS_P2;PMS_P1;PMS_P2;Temp;Humidity;BMP_temperature;BMP_pressure;BME280_temperature;BME280_humidity;BME280_pressure;Samples;Min_cycle;Max_cycle;Signal;HPM_P1;HPM_P2
2024/01/13 00:01:28;;;;;;;;;39.75;27.75;;;;;2.10;100.00;102974.66;5085050;27;45304;-68
2024/01/13 00:03:54;;;;;;;;;43.75;35.25;;;;;2.14;100.00;102991.28;5094693;27;45457;-69
2024/01/13 00:06:19;;;;;;;;;34.75;27.50;;;;;2.08;100.00;102969.44;5090322;27;45366;-68
2024/01/13 00:08:45;;;;;;;;;39.00;30.50;;;;;2.14;100.00;102970.41;5089175;27;46066;-68
2024/01/13 00:11:10;;;;;;;;;35.25;30.75;;;;;1.93;100.00;102934.28;5089005;27;45381;-68
2024/01/13 00:13:35;;;;;;;;;41.75;27.00;;;;;2.15;100.00;102962.63;5093793;27;45282;-69
2024/01/13 00:16:01;;;;;;;;;28.00;26.00;;;;;2.16;100.00;102964.34;5093556;27;45586;-68
2024/01/13 00:18:26;;;;;;;;;33.50;24.75;;;;;2.11;100.00;102955.56;5092739;27;46131;-68
2024/01/13 00:20:53;;;;;;;;;38.75;28.00;;;;;2.17;100.00;102957.41;5093694;27;45323;-69
2024/01/13 00:23:18;;;;;;;;;48.75;37.00;;;;;2.16;100.00;102955.66;5096249;27;45466;-69
2024/01/13 00:25:44;;;;;;;;;35.25;26.75;;;;;2.14;100.00;102939.06;5094117;27;45412;-69
2024/01/13 00:28:09;;;;;;;;;31.00;25.25;;;;;2.18;100.00;102941.78;5093880;27;45356;-68
2024/01/13 00:30:35;;;;;;;;;34.50;29.00;;;;;2.09;100.00;102921.56;5093869;27;45339;-68
2024/01/13 00:33:00;;;;;;;;;41.75;34.25;;;;;2.14;100.00;102936.47;5096967;27;45762;-69
2024/01/13 00:35:25;;;;;;;;;31.00;30.25;;;;;2.22;100.00;102942.75;5096606;27;45409;-69
2024/01/13 00:37:51;;;;;;;;;50.50;33.00;;;;;1.96;100.00;102897.81;5093780;27;45361;-68
2024/01/13 00:40:16;;;;;;;;;44.50;32.25;;;;;2.17;100.00;102937.41;5089823;27;45252;-68
2024/01/13 00:42:42;;;;;;;;;32.25;29.25;;;;;2.19;100.00;102940.97;5085605;27;45321;-69
2024/01/13 00:45:07;;;;;;;;;32.50;25.25;;;;;1.98;100.00;102904.84;5082654;27;45219;-68
2024/01/13 00:47:33;;;;;;;;;46.50;37.00;;;;;2.18;100.00;102944.41;5082856;27;48362;-73
2024/01/13 00:49:58;;;;;;;;;39.75;31.50;;;;;2.14;100.00;102932.13;5082519;27;45280;-72
2024/01/13 00:52:23;;;;;;;;;43.50;34.25;;;;;2.06;100.00;102923.28;5084969;27;45432;-73
2024/01/13 00:54:49;;;;;;;;;38.25;36.75;;;;;2.20;100.00;102934.88;5082173;27;45274;-73
2024/01/13 00:57:14;;;;;;;;;39.75;29.75;;;;;2.16;100.00;102927.81;5093227;27;47995;-73
2024/01/13 00:59:39;;;;;;;;;36.00;27.75;;;;;2.14;100.00;102923.41;5088939;27;45192;-72
2024/01/13 01:02:05;;;;;;;;;33.25;29.75;;;;;2.19;100.00;102938.34;5089370;27;45389;-72
2024/01/13 01:04:30;;;;;;;;;36.00;29.75;;;;;2.06;100.00;102918.91;5084464;27;45416;-72
2024/01/13 01:06:55;;;;;;;;;31.25;26.25;;;;;1.91;100.00;102904.66;5087568;27;46032;-73
2024/01/13 01:09:21;;;;;;;;;34.50;29.75;;;;;2.07;100.00;102925.00;5091155;27;45255;-72
2024/01/13 01:11:46;;;;;;;;;40.25;32.00;;;;;2.06;100.00;102924.13;5090514;27;45838;-72
2024/01/13 01:14:12;;;;;;;;;42.00;32.75;;;;;2.06;100.00;102915.44;5090065;27;45313;-72
2024/01/13 01:16:37;;;;;;;;;27.00;24.25;;;;;1.89;100.00;102888.97;5102279;27;46680;-72
2024/01/13 01:19:02;;;;;;;;;30.50;27.50;;;;;2.16;100.00;102924.34;5084279;27;45436;-72
2024/01/13 01:21:28;;;;;;;;;36.75;25.00;;;;;2.16;100.00;102924.34;5087947;27;45483;-73
2024/01/13 01:23:53;;;;;;;;;40.00;31.25;;;;;2.17;100.00;102926.09;5083667;27;45304;-73
2024/01/13 01:26:19;;;;;;;;;28.00;24.75;;;;;2.14;100.00;102921.69;5088632;27;48802;-73
2024/01/13 01:28:45;;;;;;;;;35.25;23.50;;;;;2.10;100.00;102912.91;5085717;27;45426;-72
2024/01/13 01:31:10;;;;;;;;;34.25;25.25;;;;;2.15;100.00;102918.25;5097424;27;45376;-73
2024/01/13 01:33:36;;;;;;;;;41.75;30.25;;;;;2.00;100.00;102892.69;5094283;27;45191;-72
2024/01/13 01:36:02;;;;;;;;;36.25;30.75;;;;;2.12;100.00;102926.00;5080640;27;45275;-72
2024/01/13 01:38:27;;;;;;;;;33.00;28.00;;;;;2.17;100.00;102933.91;5097686;27;45301;-73
2024/01/13 01:40:54;;;;;;;;;52.75;33.00;;;;;2.14;100.00;102932.13;5099129;27;45376;-73
2024/01/13 01:43:20;;;;;;;;;30.00;28.25;;;;;2.17;100.00;102932.19;5084653;27;45276;-72
2024/01/13 01:45:51;;;;;;;;;29.25;21.00;;;;;1.97;100.00;102907.41;5089493;27;45384;-72
2024/01/13 01:48:18;;;;;;;;;36.00;30.00;;;;;1.91;100.00;102892.50;5092488;27;45276;-73
2024/01/13 01:50:44;;;;;;;;;37.25;32.25;;;;;2.09;100.00;102931.16;5087270;27;45378;-72
2024/01/13 01:53:11;;;;;;;;;33.50;24.25;;;;;1.84;100.00;102887.97;5079902;27;45338;-72
2024/01/13 01:55:37;;;;;;;;;34.50;27.00;;;;;2.13;100.00;102932.13;5079649;27;46206;-72
2024/01/13 01:58:04;;;;;;;;;32.75;24.75;;;;;2.08;100.00;102916.34;5089429;27;45254;-72
2024/01/13 02:00:32;;;;;;;;;30.50;24.00;;;;;2.11;100.00;102916.41;5086655;27;45590;-72
2024/01/13 02:02:58;;;;;;;;;36.75;29.50;;;;;2.10;100.00;102912.91;5080708;27;45430;-72
2024/01/13 02:05:23;;;;;;;;;36.50;26.75;;;;;2.12;100.00;102909.47;5093257;27;45512;-72
2024/01/13 02:07:50;;;;;;;;;29.25;27.50;;;;;2.07;100.00;102911.97;5082017;27;45260;-72
2024/01/13 02:10:19;;;;;;;;;29.50;24.50;;;;;2.00;100.00;102903.13;5090814;27;45490;-73
2024/01/13 02:12:45;;;;;;;;;30.25;24.75;;;;;2.16;100.00;102930.41;5081781;27;45258;-73
2024/01/13 02:15:11;;;;;;;;;31.00;24.50;;;;;2.14;100.00;102910.38;5101069;27;46206;-73
2024/01/13 02:17:37;;;;;;;;;40.00;28.50;;;;;2.16;100.00;102914.75;5091343;27;45318;-72
2024/01/13 02:20:05;;;;;;;;;30.50;24.75;;;;;2.08;100.00;102916.34;5092070;27;45281;-72
2024/01/13 02:22:31;;;;;;;;;44.25;26.75;;;;;2.01;100.00;102909.22;5082440;27;45357;-72
2024/01/13 02:24:57;;;;;;;;;30.00;23.50;;;;;1.96;100.00;102909.13;5084086;27;45356;-72
2024/01/13 02:27:23;;;;;;;;;32.25;25.25;;;;;1.88;100.00;102894.16;5082134;27;45385;-72
2024/01/13 02:29:48;;;;;;;;;22.00;21.25;;;;;1.91;100.00;102904.66;5094539;27;45339;-72
2024/01/13 02:32:13;;;;;;;;;22.25;21.00;;;;;1.74;100.00;102875.59;5097910;27;45423;-72
2024/01/13 02:34:39;;;;;;;;;32.00;24.00;;;;;1.87;100.00;102900.22;5103252;27;47929;-72
2024/01/13 02:37:04;;;;;;;;;33.00;24.50;;;;;1.91;100.00;102902.03;5086394;27;45276;-73
2024/01/13 02:39:29;;;;;;;;;26.50;20.75;;;;;1.82;100.00;102891.41;5096505;27;45314;-73
2024/01/13 02:41:55;;;;;;;;;32.00;18.25;;;;;1.89;100.00;102894.19;5095705;27;45461;-72
2024/01/13 02:44:20;;;;;;;;;20.50;19.00;;;;;1.90;100.00;102897.66;5093673;27;46165;-72
2024/01/13 02:46:45;;;;;;;;;27.75;21.75;;;;;1.83;100.00;102886.22;5094783;27;45466;-73
2024/01/13 02:49:11;;;;;;;;;24.75;22.25;;;;;1.80;100.00;102893.13;5092137;27;45402;-72
2024/01/13 02:51:37;;;;;;;;;33.00;20.75;;;;;1.59;100.00;102862.22;5098464;27;45543;-72
2024/01/13 02:54:02;;;;;;;;;24.00;18.50;;;;;1.69;100.00;102889.38;5084542;27;45384;-72
2024/01/13 02:56:28;;;;;;;;;31.75;23.50;;;;;1.69;100.00;102889.38;5096645;27;45349;-72
2024/01/13 02:58:53;;;;;;;;;27.00;21.75;;;;;1.75;100.00;102876.47;5081421;27;45355;-72
2024/01/13 03:01:18;;;;;;;;;16.25;16.00;;;;;1.82;100.00;102888.81;5081051;27;45539;-73
2024/01/13 03:03:44;;;;;;;;;24.25;22.00;;;;;1.78;100.00;102880.03;5088052;27;45587;-72
2024/01/13 03:06:10;;;;;;;;;38.00;24.50;;;;;1.73;100.00;102872.97;5083022;27;45269;-72
2024/01/13 03:08:35;;;;;;;;;27.50;21.75;;;;;1.57;100.00;102843.06;5086847;27;45544;-73
2024/01/13 03:11:01;;;;;;;;;30.00;21.50;;;;;1.75;100.00;102876.47;5084349;27;45308;-73
2024/01/13 03:13:26;;;;;;;;;29.00;23.25;;;;;1.69;100.00;102866.78;5085205;27;47960;-72
2024/01/13 03:15:51;;;;;;;;;27.75;22.50;;;;;1.69;100.00;102847.66;5083091;27;45323;-72
2024/01/13 03:18:17;;;;;;;;;20.25;11.25;;;;;1.69;100.00;102852.88;5086233;27;45378;-72
2024/01/13 03:20:42;;;;;;;;;26.25;21.50;;;;;1.69;100.00;102863.31;5084859;27;45374;-72
2024/01/13 03:23:08;;;;;;;;;29.25;26.25;;;;;1.23;100.00;102776.25;5089783;27;45328;-72
2024/01/13 03:25:33;;;;;;;;;19.50;15.50;;;;;1.63;100.00;102847.53;5100337;27;45416;-72
2024/01/13 03:27:58;;;;;;;;;24.00;19.00;;;;;1.41;100.00;102818.34;5087272;27;45479;-72
2024/01/13 03:30:24;;;;;;;;;21.50;19.00;;;;;1.68;100.00;102851.09;5096078;27;45408;-72
2024/01/13 03:32:49;;;;;;;;;25.75;22.25;;;;;1.62;100.00;102838.81;5090738;27;46429;-71
2024/01/13 03:35:14;;;;;;;;;28.00;16.50;;;;;1.61;100.00;102838.75;5097433;27;45354;-72
2024/01/13 03:37:40;;;;;;;;;18.25;15.00;;;;;1.57;100.00;102825.66;5097170;27;45500;-72
2024/01/13 03:40:06;;;;;;;;;22.25;15.75;;;;;1.62;100.00;102832.72;5091404;27;45486;-72
2024/01/13 03:42:31;;;;;;;;;23.50;18.75;;;;;1.54;100.00;102828.22;5090357;27;48058;-73
2024/01/13 03:44:57;;;;;;;;;24.25;20.00;;;;;1.31;100.00;102786.84;5093210;27;45238;-72
2024/01/13 03:47:22;;;;;;;;;14.50;13.25;;;;;1.52;100.00;102813.38;5098119;27;45396;-72
2024/01/13 03:49:48;;;;;;;;;24.00;19.00;;;;;1.53;100.00;102813.44;5086956;27;45479;-72
2024/01/13 03:52:14;;;;;;;;;25.25;17.50;;;;;1.49;100.00;102795.94;5094681;27;47022;-72
2024/01/13 03:54:40;;;;;;;;;18.00;15.50;;;;;1.55;100.00;102803.00;5087436;27;45614;-73
2024/01/13 03:57:05;;;;;;;;;22.00;16.25;;;;;1.58;100.00;102805.69;5082832;27;45256;-72
2024/01/13 03:59:30;;;;;;;;;21.75;19.50;;;;;1.52;100.00;102792.53;5081564;27;45424;-72
2024/01/13 04:01:56;;;;;;;;;24.25;22.25;;;;;1.52;100.00;102793.41;5086867;27;45501;-72
2024/01/13 04:04:21;;;;;;;;;25.25;22.00;;;;;1.53;100.00;102795.19;5084139;27;45329;-73
2024/01/13 04:06:46;;;;;;;;;21.75;17.75;;;;;1.53;100.00;102810.81;5087429;27;45301;-73
2024/01/13 04:09:11;;;;;;;;;19.75;16.75;;;;;1.43;100.00;102790.59;5099044;27;45312;-72
2024/01/13 04:11:37;;;;;;;;;27.00;18.25;;;;;1.51;100.00;102803.78;5091914;27;45353;-73
2024/01/13 04:14:02;;;;;;;;;27.75;20.25;;;;;1.53;100.00;102796.91;5092419;27;45227;-72
2024/01/13 04:16:28;;;;;;;;;19.75;19.00;;;;;1.55;100.00;102792.59;5085929;27;45373;-73
2024/01/13 04:18:53;;;;;;;;;34.75;27.00;;;;;1.45;100.00;102765.44;5097638;27;45418;-72
2024/01/13 04:21:18;;;;;;;;;24.50;22.00;;;;;1.11;100.00;102709.97;5091878;27;45311;-72
2024/01/13 04:23:44;;;;;;;;;31.25;23.00;;;;;1.52;100.00;102771.66;5085504;27;45373;-72
2024/01/13 04:26:09;;;;;;;;;33.00;24.25;;;;;1.60;100.00;102783.16;5087786;27;45322;-72
2024/01/13 04:28:35;;;;;;;;;38.00;27.75;;;;;1.42;100.00;102751.47;5084926;27;45315;-72
2024/01/13 04:31:00;;;;;;;;;29.75;26.50;;;;;1.40;100.00;102737.53;5084488;27;45365;-72
2024/01/13 04:33:26;;;;;;;;;32.00;25.25;;;;;1.19;100.00;102719.69;5100213;27;45319;-72
2024/01/13 04:35:51;;;;;;;;;19.00;15.25;;;;;1.65;100.00;102789.34;5097148;27;45281;-72
2024/01/13 04:38:17;;;;;;;;;30.25;20.50;;;;;1.56;100.00;102771.78;5092681;27;45284;-73
2024/01/13 04:40:42;;;;;;;;;23.75;19.25;;;;;1.41;100.00;102749.69;5087080;27;45417;-72
2024/01/13 04:43:07;;;;;;;;;22.75;17.00;;;;;1.53;100.00;102779.53;5094481;27;45662;-72
2024/01/13 04:45:33;;;;;;;;;17.25;14.25;;;;;1.37;100.00;102756.59;5090604;27;45394;-72
2024/01/13 04:48:01;;;;;;;;;14.75;13.50;;;;;1.41;100.00;102755.78;5083110;27;45273;-72
2024/01/13 04:50:26;;;;;;;;;23.00;19.00;;;;;1.52;100.00;102772.56;5086248;27;46171;-72
2024/01/13 04:52:52;;;;;;;;;26.75;22.00;;;;;1.52;100.00;102766.44;5089766;27;45401;-72
2024/01/13 04:55:18;;;;;;;;;26.00;15.25;;;;;1.57;100.00;102776.13;5089245;27;45495;-72
2024/01/13 04:57:43;;;;;;;;;24.00;15.75;;;;;1.60;100.00;102774.44;5089681;27;45403;-72
2024/01/13 05:00:09;;;;;;;;;24.00;17.75;;;;;1.54;100.00;102763.03;5099722;27;48029;-73
2024/01/13 05:02:34;;;;;;;;;17.50;15.25;;;;;1.53;100.00;102766.50;5095279;27;45373;-73
2024/01/13 05:04:59;;;;;;;;;19.25;18.25;;;;;1.52;100.00;102762.13;5083826;27;45377;-72
2024/01/13 05:07:25;;;;;;;;;19.00;17.50;;;;;1.48;100.00;102756.78;5096663;27;45478;-72
2024/01/13 05:09:50;;;;;;;;;20.75;16.75;;;;;1.52;100.00;102748.19;5089381;27;45410;-73
2024/01/13 05:12:16;;;;;;;;;25.00;18.75;;;;;1.51;100.00;102762.97;5092251;27;45378;-71
2024/01/13 05:14:41;;;;;;;;;24.00;15.25;;;;;1.48;100.00;102768.09;5083258;27;45236;-74
2024/01/13 05:17:06;;;;;;;;;28.75;20.75;;;;;1.40;100.00;102756.66;5088693;27;45238;-72
2024/01/13 05:19:32;;;;;;;;;29.75;24.00;;;;;1.22;100.00;102716.25;5089166;27;45420;-72
2024/01/13 05:21:58;;;;;;;;;17.25;14.75;;;;;1.42;100.00;102744.53;5083472;27;45282;-73
2024/01/13 05:24:23;;;;;;;;;18.75;15.50;;;;;1.43;100.00;102756.72;5089139;27;45294;-72
2024/01/13 05:26:48;;;;;;;;;19.25;17.25;;;;;1.16;100.00;102697.91;5083396;27;45238;-72
2024/01/13 05:29:14;;;;;;;;;18.50;17.75;;;;;1.35;100.00;102716.56;5082362;27;45575;-73
2024/01/13 05:31:41;;;;;;;;;25.00;20.25;;;;;1.31;100.00;102709.50;5087423;27;45366;-72
2024/01/13 05:34:07;;;;;;;;;25.75;19.25;;;;;1.39;100.00;102717.50;5114987;27;45447;-72
2024/01/13 05:36:32;;;;;;;;;22.50;18.50;;;;;1.41;100.00;102718.41;5090620;27;45234;-72
2024/01/13 05:38:57;;;;;;;;;24.25;22.25;;;;;1.46;100.00;102729.81;5093511;27;46367;-72
2024/01/13 05:41:23;;;;;;;;;33.25;25.25;;;;;1.46;100.00;102727.22;5090970;27;45352;-72
2024/01/13 05:43:49;;;;;;;;;33.75;23.50;;;;;1.41;100.00;102723.63;5092953;27;45494;-72
2024/01/13 05:46:14;;;;;;;;;24.25;21.75;;;;;1.14;100.00;102684.84;5090813;27;45444;-72
2024/01/13 05:48:39;;;;;;;;;31.00;22.75;;;;;1.38;100.00;102726.16;5088275;27;46382;-73
2024/01/13 05:51:05;;;;;;;;;30.75;22.25;;;;;1.36;100.00;102718.31;5097889;27;45453;-73
2024/01/13 05:53:30;;;;;;;;;20.50;17.50;;;;;1.43;100.00;102721.94;5094857;27;45213;-72
2024/01/13 05:55:55;;;;;;;;;17.25;13.50;;;;;1.26;100.00;102692.03;5101449;27;45297;-72
2024/01/13 05:58:21;;;;;;;;;18.00;13.75;;;;;1.26;100.00;102695.53;5084925;27;46317;-72
2024/01/13 06:00:46;;;;;;;;;20.25;13.75;;;;;1.26;100.00;102712.88;5095416;27;45439;-73
2024/01/13 06:03:11;;;;;;;;;21.50;20.00;;;;;1.35;100.00;102703.53;5080251;27;45250;-73
2024/01/13 06:05:38;;;;;;;;;22.00;15.75;;;;;1.32;100.00;102706.06;5096563;27;45395;-73
2024/01/13 06:08:04;;;;;;;;;15.75;10.00;;;;;1.27;100.00;102689.47;5104548;27;47226;-73
2024/01/13 06:10:30;;;;;;;;;29.50;20.75;;;;;1.25;100.00;102683.31;5087336;27;46382;-73
2024/01/13 06:12:56;;;;;;;;;22.25;21.25;;;;;1.41;100.00;102700.16;5081354;27;45317;-73
2024/01/13 06:15:23;;;;;;;;;30.25;19.00;;;;;0.95;100.00;102634.06;5083830;27;45493;-72
2024/01/13 06:17:48;;;;;;;;;20.00;18.25;;;;;1.35;100.00;102695.72;5096229;27;47190;-72
2024/01/13 06:20:14;;;;;;;;;23.00;17.25;;;;;1.24;100.00;102673.78;5095699;27;45420;-72
2024/01/13 06:22:39;;;;;;;;;29.50;21.75;;;;;1.13;100.00;102649.22;5083365;27;45707;-73
2024/01/13 06:25:05;;;;;;;;;22.25;18.00;;;;;1.40;100.00;102693.22;5083785;27;45326;-73
2024/01/13 06:27:30;;;;;;;;;20.00;17.75;;;;;1.38;100.00;102681.84;5082065;27;47694;-73
2024/01/13 06:29:57;;;;;;;;;24.00;18.00;;;;;1.28;100.00;102670.34;5084633;27;45402;-73
2024/01/13 06:32:23;;;;;;;;;20.00;18.00;;;;;1.33;100.00;102689.59;5087292;27;45265;-73
2024/01/13 06:34:48;;;;;;;;;24.25;19.50;;;;;1.30;100.00;102678.22;5092987;27;45438;-73
2024/01/13 06:37:13;;;;;;;;;27.75;18.25;;;;;1.28;100.00;102675.56;5093827;27;48018;-73
2024/01/13 06:39:39;;;;;;;;;22.00;17.00;;;;;1.07;100.00;102658.63;5092121;27;45464;-73
2024/01/13 06:42:06;;;;;;;;;23.50;18.50;;;;;1.24;100.00;102676.38;5091341;27;45212;-73
2024/01/13 06:44:34;;;;;;;;;31.50;20.75;;;;;1.27;100.00;102684.25;5093325;27;45258;-73
2024/01/13 06:47:02;;;;;;;;;26.25;21.25;;;;;1.27;100.00;102696.41;5086232;27;45424;-73
2024/01/13 06:49:27;;;;;;;;;22.25;18.75;;;;;1.19;100.00;102688.41;5098496;27;46356;-73
2024/01/13 06:51:52;;;;;;;;;28.25;24.25;;;;;1.22;100.00;102691.09;5096458;27;45290;-73
2024/01/13 06:54:18;;;;;;;;;20.25;20.25;;;;;1.19;100.00;102683.22;5093583;27;45354;-72
2024/01/13 06:56:44;;;;;;;;;29.50;25.25;;;;;1.21;100.00;102688.47;5099925;27;46387;-73
2024/01/13 06:59:10;;;;;;;;;28.25;22.25;;;;;1.17;100.00;102674.50;5097622;27;45279;-73
2024/01/13 07:01:35;;;;;;;;;27.50;18.75;;;;;1.24;100.00;102678.09;5092448;27;45263;-72
2024/01/13 07:04:01;;;;;;;;;25.25;16.50;;;;;1.25;100.00;102683.31;5086470;27;45453;-73
2024/01/13 07:06:27;;;;;;;;;26.00;18.50;;;;;1.03;100.00;102650.75;5084273;27;45404;-73
2024/01/13 07:08:52;;;;;;;;;32.50;26.50;;;;;1.16;100.00;102659.69;5084131;27;45310;-73
2024/01/13 07:11:17;;;;;;;;;24.75;21.50;;;;;1.25;100.00;102667.69;5092743;27;45389;-73
2024/01/13 07:13:44;;;;;;;;;19.75;19.75;;;;;1.24;100.00;102670.28;5086418;27;45287;-73
2024/01/13 07:16:12;;;;;;;;;32.50;26.75;;;;;1.10;100.00;102646.53;5084939;27;46456;-73
2024/01/13 07:18:37;;;;;;;;;28.75;21.75;;;;;1.28;100.00;102672.97;5095971;27;45268;-73
2024/01/13 07:21:05;;;;;;;;;28.25;21.75;;;;;1.12;100.00;102644.84;5088270;27;45721;-73
2024/01/13 07:23:31;;;;;;;;;26.25;19.50;;;;;1.14;100.00;102648.38;5096800;27;45463;-74
2024/01/13 07:25:56;;;;;;;;;28.50;23.50;;;;;1.24;100.00;102665.97;5090552;27;47532;-73
2024/01/13 07:28:22;;;;;;;;;25.25;19.00;;;;;1.28;100.00;102672.09;5100995;27;45349;-73
2024/01/13 07:30:47;;;;;;;;;21.00;14.00;;;;;1.09;100.00;102642.16;5088141;27;45262;-73
2024/01/13 07:33:13;;;;;;;;;19.00;17.50;;;;;1.24;100.00;102678.09;5101622;27;45337;-73
2024/01/13 07:35:38;;;;;;;;;34.25;23.00;;;;;1.22;100.00;102658.94;5109820;27;47988;-73
2024/01/13 07:38:03;;;;;;;;;20.50;14.50;;;;;1.22;100.00;102658.94;5093687;27;45350;-73
2024/01/13 07:40:29;;;;;;;;;21.50;18.50;;;;;1.23;100.00;102666.78;5091265;27;45401;-73
2024/01/13 07:42:54;;;;;;;;;30.50;25.75;;;;;1.20;100.00;102664.13;5082952;27;45388;-73
2024/01/13 07:45:20;;;;;;;;;21.25;20.00;;;;;1.07;100.00;102630.84;5094265;27;46151;-72
2024/01/13 07:47:46;;;;;;;;;32.75;28.25;;;;;1.21;100.00;102659.81;5092928;27;45320;-73
2024/01/13 07:50:11;;;;;;;;;30.00;21.75;;;;;1.26;100.00;102659.03;5095890;27;45439;-73
2024/01/13 07:52:37;;;;;;;;;33.75;22.50;;;;;0.97;100.00;102600.25;5089730;27;45672;-73
2024/01/13 07:55:03;;;;;;;;;32.00;26.50;;;;;1.26;100.00;102646.00;5101098;27;46933;-73
2024/01/13 07:57:29;;;;;;;;;29.00;29.00;;;;;1.24;100.00;102636.41;5093847;27;45281;-73
2024/01/13 07:59:55;;;;;;;;;36.50;25.75;;;;;1.22;100.00;102638.97;5099472;27;45370;-72
2024/01/13 08:02:20;;;;;;;;;23.75;18.50;;;;;1.25;100.00;102640.75;5097564;27;45267;-73
2024/01/13 08:04:46;;;;;;;;;34.75;28.00;;;;;1.30;100.00;102654.78;5083106;27;45291;-73
2024/01/13 08:07:11;;;;;;;;;25.25;21.25;;;;;1.31;100.00;102649.56;5093482;27;45533;-73
2024/01/13 08:09:37;;;;;;;;;27.50;23.75;;;;;1.32;100.00;102640.03;5088351;27;45353;-73
2024/01/13 08:12:03;;;;;;;;;26.25;24.00;;;;;1.28;100.00;102633.88;5083905;27;46095;-73
2024/01/13 08:14:28;;;;;;;;;30.00;27.00;;;;;1.15;100.00;102604.94;5081079;27;45333;-73
2024/01/13 08:16:53;;;;;;;;;37.25;27.25;;;;;1.14;100.00;102590.16;5086426;27;45317;-73
2024/01/13 08:19:19;;;;;;;;;25.50;21.50;;;;;1.32;100.00;102622.66;5090981;27;45282;-73
2024/01/13 08:21:44;;;;;;;;;32.00;25.25;;;;;1.12;100.00;102582.31;5094241;27;45303;-73
2024/01/13 08:24:10;;;;;;;;;38.50;32.75;;;;;1.41;100.00;102635.88;5100281;27;47011;-73
2024/01/13 08:26:37;;;;;;;;;42.75;28.50;;;;;1.43;100.00;102628.97;5086531;27;45329;-73
2024/01/13 08:29:02;;;;;;;;;39.25;28.00;;;;;1.45;100.00;102626.38;5083451;27;45365;-73
2024/01/13 08:31:28;;;;;;;;;26.25;22.50;;;;;1.48;100.00;102644.69;5084740;27;45562;-73
2024/01/13 08:33:54;;;;;;;;;31.75;26.00;;;;;1.21;100.00;102576.41;5098683;27;46463;-73
2024/01/13 08:36:20;;;;;;;;;35.25;25.00;;;;;1.39;100.00;102603.69;5093553;27;45400;-73
2024/01/13 08:38:46;;;;;;;;;36.25;26.00;;;;;1.49;100.00;102628.22;5087171;27;45284;-73
2024/01/13 08:41:12;;;;;;;;;30.25;28.00;;;;;1.54;100.00;102629.16;5097732;27;45492;-73
2024/01/13 08:43:37;;;;;;;;;30.25;30.25;;;;;1.48;100.00;102601.25;5091108;27;45331;-69
2024/01/13 08:46:03;;;;;;;;;37.75;24.00;;;;;1.49;100.00;102608.25;5088073;27;45297;-69
2024/01/13 08:48:28;;;;;;;;;31.25;24.75;;;;;1.60;100.00;102631.03;5093415;27;45397;-69
2024/01/13 08:50:53;;;;;;;;;35.00;28.00;;;;;1.55;100.00;102628.31;5086784;27;45859;-69
2024/01/13 08:53:19;;;;;;;;;33.25;27.50;;;;;1.53;100.00;102632.63;5104626;27;46693;-69
2024/01/13 08:55:44;;;;;;;;;30.75;26.00;;;;;1.63;100.00;102642.41;5087014;27;45381;-69
2024/01/13 08:58:10;;;;;;;;;39.50;27.75;;;;;1.68;100.00;102652.91;5090886;27;46033;-69
2024/01/13 09:00:35;;;;;;;;;38.50;30.50;;;;;1.51;100.00;102627.38;5098509;27;46535;-69
2024/01/13 09:03:01;;;;;;;;;31.50;25.75;;;;;1.72;100.00;102671.25;5085358;27;45521;-69
2024/01/13 09:05:27;;;;;;;;;35.50;31.00;;;;;1.66;100.00;102665.03;5095801;27;45250;-69
2024/01/13 09:07:54;;;;;;;;;26.25;25.75;;;;;1.65;100.00;102678.91;5082128;27;46128;-69
2024/01/13 09:10:20;;;;;;;;;26.00;23.00;;;;;1.66;100.00;102675.47;5097412;27;45516;-69
2024/01/13 09:12:45;;;;;;;;;41.25;33.00;;;;;1.42;100.00;102632.44;5099935;27;46457;-69
2024/01/13 09:15:12;;;;;;;;;32.50;29.75;;;;;1.57;100.00;102657.94;5102287;27;45264;-69
2024/01/13 09:17:38;;;;;;;;;35.00;28.00;;;;;1.59;100.00;102664.03;5087439;27;45320;-69
2024/01/13 09:20:04;;;;;;;;;47.00;26.75;;;;;1.60;100.00;102664.94;5090769;27;45465;-69
2024/01/13 09:22:30;;;;;;;;;39.50;28.75;;;;;1.64;100.00;102665.00;5095861;27;46441;-69
2024/01/13 09:24:55;;;;;;;;;37.50;28.50;;;;;1.60;100.00;102662.31;5087842;27;45320;-69
2024/01/13 09:27:21;;;;;;;;;29.75;25.75;;;;;1.64;100.00;102657.16;5091717;27;45406;-69
2024/01/13 09:29:46;;;;;;;;;39.25;32.75;;;;;1.67;100.00;102645.94;5082422;27;45316;-69
2024/01/13 09:32:14;;;;;;;;;27.75;19.50;;;;;1.61;100.00;102624.94;5086613;27;46175;-69
2024/01/13 09:34:40;;;;;;;;;38.75;31.25;;;;;1.66;100.00;102645.06;5088787;27;45285;-69
2024/01/13 09:37:05;;;;;;;;;33.00;29.00;;;;;1.65;100.00;102658.94;5088516;27;45521;-69
2024/01/13 09:39:31;;;;;;;;;37.00;30.75;;;;;1.69;100.00;102660.75;5091762;27;45277;-69
2024/01/13 09:41:58;;;;;;;;;31.00;30.00;;;;;1.69;100.00;102662.47;5094031;27;46115;-69
2024/01/13 09:44:27;;;;;;;;;29.50;25.00;;;;;1.69;100.00;102659.88;5092482;27;45312;-69
2024/01/13 09:46:55;;;;;;;;;37.50;27.75;;;;;1.55;100.00;102639.63;5103869;27;45283;-69
2024/01/13 09:49:24;;;;;;;;;18.50;18.50;;;;;1.67;100.00;102674.63;5091979;27;45318;-69
2024/01/13 09:51:51;;;;;;;;;42.50;33.25;;;;;1.42;100.00;102655.00;5091412;27;47039;-69
2024/01/13 09:54:29;;;;;;;;;33.00;25.25;;;;;1.60;100.00;102699.72;5091920;27;45578;-69
2024/01/13 09:56:56;;;;;;;;;25.50;21.25;;;;;1.58;100.00;102694.44;5089635;27;45199;-69
2024/01/13 09:59:25;;;;;;;;;32.50;24.25;;;;;1.32;100.00;102645.25;5089115;27;45419;-69
2024/01/13 10:01:51;;;;;;;;;28.75;28.75;;;;;1.60;100.00;102683.19;5088291;27;46481;-69
2024/01/13 10:04:17;;;;;;;;;40.25;34.75;;;;;1.56;100.00;102682.25;5093998;27;45348;-69
2024/01/13 10:06:44;;;;;;;;;28.75;26.75;;;;;1.61;100.00;102685.81;5086195;27;45259;-69
2024/01/13 10:09:10;;;;;;;;;40.25;26.25;;;;;1.57;100.00;102677.03;5080740;27;45484;-69
2024/01/13 10:11:36;;;;;;;;;27.50;25.25;;;;;1.64;100.00;102692.84;5081592;27;46472;-69
2024/01/13 10:14:03;;;;;;;;;33.00;26.75;;;;;1.60;100.00;102677.97;5080848;27;45192;-69
2024/01/13 10:16:30;;;;;;;;;39.75;28.75;;;;;1.59;100.00;102669.25;5081823;27;45292;-69
2024/01/13 10:18:57;;;;;;;;;31.00;28.00;;;;;1.63;100.00;102659.78;5080730;27;45430;-69
2024/01/13 10:21:26;;;;;;;;;35.50;25.25;;;;;1.62;100.00;102653.66;5081591;27;45597;-69
2024/01/13 10:23:55;;;;;;;;;33.75;28.50;;;;;1.69;100.00;102654.66;5080514;27;45395;-69
2024/01/13 10:26:21;;;;;;;;;38.25;31.25;;;;;1.65;100.00;102645.91;5081421;27;45464;-69
2024/01/13 10:28:47;;;;;;;;;37.75;31.50;;;;;1.74;100.00;102661.72;5080682;27;45310;-69
2024/01/13 10:31:12;;;;;;;;;38.00;27.00;;;;;1.76;100.00;102657.44;5084656;27;45397;-69
2024/01/13 10:33:44;;;;;;;;;35.25;27.75;;;;;1.77;100.00;102659.16;5083560;27;45340;-69
2024/01/13 10:36:10;;;;;;;;;32.00;24.50;;;;;1.78;100.00;102647.88;5099992;27;45250;-69
2024/01/13 10:38:39;;;;;;;;;23.25;19.50;;;;;1.84;100.00;102645.38;5102485;27;45365;-69
2024/01/13 10:41:06;;;;;;;;;34.75;26.25;;;;;1.85;100.00;102639.31;5094648;27;45614;-69
2024/01/13 10:43:32;;;;;;;;;32.50;26.25;;;;;1.89;100.00;102643.75;5092391;27;45262;-69
2024/01/13 10:46:01;;;;;;;;;34.50;28.00;;;;;1.70;100.00;102604.28;5092229;27;45296;-69
2024/01/13 10:48:39;;;;;;;;;27.00;23.75;;;;;1.87;100.00;102618.47;5091935;27;45385;-69
2024/01/13 10:51:15;;;;;;;;;30.00;21.00;;;;;1.96;100.00;102626.47;5093921;27;45200;-69
2024/01/13 10:53:45;;;;;;;;;33.75;28.25;;;;;2.00;100.00;102610.00;5090732;27;45488;-69
2024/01/13 10:56:12;;;;;;;;;37.50;33.75;;;;;2.03;100.00;102610.03;5097501;27;45675;-69
2024/01/13 10:58:37;;;;;;;;;37.75;31.75;;;;;2.04;100.00;102593.53;5101152;27;45300;-69
2024/01/13 11:01:03;;;;;;;;;33.25;29.75;;;;;2.04;100.00;102584.00;5094303;27;45458;-69
2024/01/13 11:03:29;;;;;;;;;36.75;29.75;;;;;2.13;100.00;102587.63;5090020;27;45342;-69